createdAt,value
2022-11-24T00:00:30.415Z,98.33
2022-11-24T00:01:30.046Z,98.33
2022-11-24T00:02:30.435Z,98.28
2022-11-24T00:03:30.078Z,98.38
2022-11-24T00:04:30.293Z,98.24
2022-11-24T00:05:30.031Z,98.18
2022-11-24T00:06:30.979Z,98.07
2022-11-24T00:07:30.109Z,98.03
2022-11-24T00:08:30.261Z,97.92
2022-11-24T00:09:50.247Z,97.82
2022-11-24T00:10:29.860Z,97.82
2022-11-24T00:11:30.127Z,97.62
2022-11-24T00:12:29.858Z,97.62
2022-11-24T00:13:30.090Z,97.62
2022-11-24T00:14:36.429Z,97.62
2022-11-24T00:15:29.938Z,97.62
2022-11-24T00:16:30.268Z,97.62
2022-11-24T00:17:29.941Z,97.62
2022-11-24T00:18:30.184Z,97.62
2022-11-24T00:19:51.420Z,97.72
2022-11-24T00:20:29.719Z,97.72
2022-11-24T00:21:29.960Z,97.66
2022-11-24T00:22:29.722Z,97.77
2022-11-24T00:23:29.941Z,97.77
2022-11-24T00:24:29.694Z,97.77
2022-11-24T00:25:29.920Z,97.87
2022-11-24T00:26:29.671Z,97.77
2022-11-24T00:27:29.925Z,97.77
2022-11-24T00:28:29.652Z,97.77
2022-11-24T00:29:50.383Z,97.77
2022-11-24T00:30:29.771Z,97.77
2022-11-24T00:31:29.990Z,97.87
2022-11-24T00:32:29.686Z,97.87
2022-11-24T00:33:29.919Z,97.77
2022-11-24T00:34:29.664Z,97.66
2022-11-24T00:35:29.913Z,97.77
2022-11-24T00:36:29.652Z,97.77
2022-11-24T00:37:29.905Z,97.77
2022-11-24T00:38:29.636Z,97.77
2022-11-24T00:39:50.603Z,97.87
2022-11-24T00:40:34.848Z,97.77
2022-11-24T00:41:30.486Z,97.77
2022-11-24T00:42:29.744Z,97.77
2022-11-24T00:43:29.497Z,97.77
2022-11-24T00:44:35.731Z,97.77
2022-11-24T00:45:29.795Z,97.77
2022-11-24T00:46:29.738Z,97.87
2022-11-24T00:47:29.763Z,97.87
2022-11-24T00:48:29.503Z,97.87
2022-11-24T00:49:51.276Z,98.07
2022-11-24T00:50:29.583Z,97.97
2022-11-24T00:51:29.830Z,98.07
2022-11-24T00:52:29.749Z,97.97
2022-11-24T00:53:29.850Z,97.97
2022-11-24T00:54:36.167Z,97.77
2022-11-24T00:55:29.716Z,97.77
2022-11-24T00:56:29.449Z,97.77
2022-11-24T00:57:29.739Z,97.66
2022-11-24T00:58:29.479Z,97.77
2022-11-24T00:59:49.897Z,97.66
2022-11-24T01:00:29.555Z,97.66
2022-11-24T01:01:29.347Z,97.56
2022-11-24T01:02:29.589Z,97.56
2022-11-24T01:03:29.280Z,97.56
2022-11-24T01:04:35.114Z,97.45
2022-11-24T01:05:30.394Z,97.56
2022-11-24T01:06:29.329Z,97.56
2022-11-24T01:07:29.653Z,97.56
2022-11-24T01:08:29.321Z,97.56
2022-11-24T01:09:49.580Z,97.56
2022-11-24T01:10:29.313Z,97.56
2022-11-24T01:11:29.548Z,97.56
2022-11-24T01:12:29.296Z,97.56
2022-11-24T01:13:29.541Z,97.56
2022-11-24T01:14:29.284Z,97.66
2022-11-24T01:15:29.609Z,97.66
2022-11-24T01:16:29.281Z,97.56
2022-11-24T01:17:29.515Z,97.56
2022-11-24T01:18:29.253Z,97.56
2022-11-24T01:19:49.509Z,97.66
2022-11-24T01:20:29.242Z,97.66
2022-11-24T01:21:29.483Z,97.66
2022-11-24T01:22:29.235Z,97.56
2022-11-24T01:23:29.476Z,97.56
2022-11-24T01:24:29.254Z,97.45
2022-11-24T01:25:28.984Z,97.45
2022-11-24T01:26:29.226Z,97.56
2022-11-24T01:27:28.987Z,97.56
2022-11-24T01:28:29.225Z,97.45
2022-11-24T01:29:49.476Z,97.56
2022-11-24T01:30:29.305Z,97.56
2022-11-24T01:31:29.023Z,97.45
2022-11-24T01:32:29.202Z,97.45
2022-11-24T01:33:28.964Z,97.36
2022-11-24T01:34:34.839Z,97.36
2022-11-24T01:35:29.262Z,97.36
2022-11-24T01:36:29.007Z,97.25
2022-11-24T01:37:29.247Z,97.36
2022-11-24T01:38:28.987Z,97.36
2022-11-24T01:39:49.248Z,97.36
2022-11-24T01:40:28.979Z,97.25
2022-11-24T01:41:29.216Z,97.25
2022-11-24T01:42:28.948Z,97.25
2022-11-24T01:43:30.646Z,97.25
2022-11-24T01:44:35.453Z,97.36
2022-11-24T01:45:28.935Z,97.36
2022-11-24T01:46:29.294Z,97.45
2022-11-24T01:47:28.920Z,97.45
2022-11-24T01:48:29.161Z,97.45
2022-11-24T01:49:48.918Z,97.56
2022-11-24T01:50:29.187Z,97.56
2022-11-24T01:51:28.916Z,97.56
2022-11-24T01:52:29.170Z,97.56
2022-11-24T01:53:28.898Z,97.66
2022-11-24T01:54:29.159Z,97.66
2022-11-24T01:55:28.894Z,97.66
2022-11-24T01:56:29.144Z,97.77
2022-11-24T01:57:28.889Z,97.77
2022-11-24T01:58:28.633Z,97.87
2022-11-24T01:59:48.901Z,97.87
2022-11-24T02:00:28.631Z,97.87
2022-11-24T02:01:28.909Z,97.87
2022-11-24T02:02:28.644Z,97.87
2022-11-24T02:03:28.880Z,97.87
2022-11-24T02:04:34.413Z,97.77
2022-11-24T02:05:28.669Z,97.77
2022-11-24T02:06:28.903Z,97.77
2022-11-24T02:07:28.667Z,97.66
2022-11-24T02:08:28.883Z,97.66
2022-11-24T02:09:48.643Z,97.66
2022-11-24T02:10:28.895Z,97.56
2022-11-24T02:11:28.621Z,97.56
2022-11-24T02:12:28.857Z,97.56
2022-11-24T02:13:28.601Z,97.56
2022-11-24T02:14:35.365Z,97.56
2022-11-24T02:15:29.013Z,97.56
2022-11-24T02:16:28.606Z,97.56
2022-11-24T02:17:28.853Z,97.56
2022-11-24T02:18:28.591Z,97.36
2022-11-24T02:19:48.854Z,97.31
2022-11-24T02:20:29.455Z,97.31
2022-11-24T02:21:28.866Z,97.31
2022-11-24T02:22:28.634Z,97.20
2022-11-24T02:23:28.363Z,97.10
2022-11-24T02:24:28.625Z,97.10
2022-11-24T02:25:28.375Z,97.20
2022-11-24T02:26:28.606Z,97.10
2022-11-24T02:27:28.846Z,97.10
2022-11-24T02:28:28.595Z,97.20
2022-11-24T02:29:48.360Z,97.20
2022-11-24T02:30:28.584Z,97.20
2022-11-24T02:31:29.820Z,97.31
2022-11-24T02:32:28.973Z,97.41
2022-11-24T02:33:28.346Z,97.41
2022-11-24T02:34:29.105Z,97.41
2022-11-24T02:35:28.346Z,97.52
2022-11-24T02:36:28.586Z,97.41
2022-11-24T02:37:28.342Z,97.41
2022-11-24T02:38:28.605Z,97.52
2022-11-24T02:39:48.985Z,97.52
2022-11-24T02:40:28.607Z,97.41
2022-11-24T02:41:28.347Z,97.41
2022-11-24T02:42:28.598Z,97.31
2022-11-24T02:43:28.326Z,97.20
2022-11-24T02:44:35.131Z,97.20
2022-11-24T02:45:28.570Z,97.31
2022-11-24T02:46:28.351Z,97.41
2022-11-24T02:47:28.551Z,97.41
2022-11-24T02:48:28.301Z,97.52
2022-11-24T02:49:48.555Z,97.52
2022-11-24T02:50:28.289Z,97.47
2022-11-24T02:51:28.547Z,97.41
2022-11-24T02:52:28.280Z,97.27
2022-11-24T02:53:28.519Z,97.27
2022-11-24T02:54:28.283Z,97.16
2022-11-24T02:55:28.042Z,97.16
2022-11-24T02:56:28.284Z,97.06
2022-11-24T02:57:28.016Z,96.85
2022-11-24T02:58:28.272Z,96.85
2022-11-24T02:59:48.507Z,96.85
2022-11-24T03:00:28.224Z,96.85
2022-11-24T03:01:28.043Z,96.85
2022-11-24T03:02:29.711Z,96.85
2022-11-24T03:03:27.992Z,96.85
2022-11-24T03:04:29.692Z,96.95
2022-11-24T03:05:27.983Z,96.95
2022-11-24T03:06:28.230Z,96.95
2022-11-24T03:07:27.993Z,97.06
2022-11-24T03:08:28.269Z,97.06
2022-11-24T03:09:48.076Z,97.16
2022-11-24T03:10:28.349Z,97.06
2022-11-24T03:11:28.418Z,97.06
2022-11-24T03:12:27.969Z,97.06
2022-11-24T03:13:28.231Z,96.95
2022-11-24T03:14:28.050Z,96.95
2022-11-24T03:15:29.834Z,96.85
2022-11-24T03:16:28.120Z,96.85
2022-11-24T03:17:27.875Z,96.75
2022-11-24T03:18:28.120Z,96.85
2022-11-24T03:19:47.911Z,96.70
2022-11-24T03:20:28.142Z,96.70
2022-11-24T03:21:27.943Z,96.60
2022-11-24T03:22:28.187Z,96.60
2022-11-24T03:23:27.981Z,96.60
2022-11-24T03:24:29.643Z,96.60
2022-11-24T03:25:27.989Z,96.60
2022-11-24T03:26:27.810Z,96.70
2022-11-24T03:27:28.094Z,96.70
2022-11-24T03:28:27.875Z,96.81
2022-11-24T03:29:48.149Z,96.70
2022-11-24T03:30:28.422Z,96.70
2022-11-24T03:31:27.764Z,96.70
2022-11-24T03:32:27.985Z,96.50
2022-11-24T03:33:27.795Z,96.40
2022-11-24T03:34:28.080Z,96.50
2022-11-24T03:35:27.795Z,96.50
2022-11-24T03:36:29.545Z,96.40
2022-11-24T03:37:27.872Z,96.40
2022-11-24T03:38:27.691Z,96.40
2022-11-24T03:39:47.955Z,96.50
2022-11-24T03:40:27.746Z,96.50
2022-11-24T03:41:29.442Z,96.40
2022-11-24T03:42:27.774Z,96.30
2022-11-24T03:43:27.587Z,96.30
2022-11-24T03:44:27.837Z,96.19
2022-11-24T03:45:45.376Z,95.98
2022-11-24T03:46:28.879Z,95.98
2022-11-24T03:47:27.583Z,95.98
2022-11-24T03:48:27.826Z,95.74
2022-11-24T03:49:47.582Z,95.74
2022-11-24T03:50:27.802Z,95.74
2022-11-24T03:51:28.542Z,95.84
2022-11-24T03:52:27.797Z,95.84
2022-11-24T03:53:28.991Z,95.98
2022-11-24T03:54:28.508Z,96.09
2022-11-24T03:55:27.564Z,96.19
2022-11-24T03:56:27.795Z,96.19
2022-11-24T03:57:27.543Z,96.19
2022-11-24T03:58:27.796Z,96.30
2022-11-24T03:59:47.545Z,96.40
2022-11-24T04:00:27.772Z,96.40
2022-11-24T04:01:29.012Z,96.60
2022-11-24T04:02:27.858Z,96.60
2022-11-24T04:03:27.536Z,96.60
2022-11-24T04:04:29.240Z,96.70
2022-11-24T04:05:27.552Z,96.81
2022-11-24T04:06:27.784Z,96.81
2022-11-24T04:07:29.071Z,96.60
2022-11-24T04:08:28.267Z,96.70
2022-11-24T04:09:47.565Z,96.70
2022-11-24T04:10:28.008Z,96.70
2022-11-24T04:11:28.999Z,96.60
2022-11-24T04:12:27.325Z,96.60
2022-11-24T04:13:27.548Z,96.60
2022-11-24T04:14:28.768Z,96.70
2022-11-24T04:15:27.557Z,96.70
2022-11-24T04:16:27.879Z,96.60
2022-11-24T04:17:28.992Z,96.70
2022-11-24T04:18:27.288Z,96.60
2022-11-24T04:19:47.554Z,96.60
2022-11-24T04:20:28.221Z,96.60
2022-11-24T04:21:27.509Z,96.70
2022-11-24T04:22:27.970Z,96.70
2022-11-24T04:23:28.978Z,96.81
2022-11-24T04:24:28.106Z,96.91
2022-11-24T04:25:27.509Z,97.12
2022-11-24T04:26:28.699Z,97.02
2022-11-24T04:27:27.513Z,97.02
2022-11-24T04:28:27.263Z,97.12
2022-11-24T04:29:47.523Z,97.12
2022-11-24T04:30:27.252Z,97.02
2022-11-24T04:31:27.535Z,97.02
2022-11-24T04:32:27.274Z,97.12
2022-11-24T04:33:28.442Z,97.12
2022-11-24T04:34:27.949Z,97.12
2022-11-24T04:35:28.959Z,97.22
2022-11-24T04:36:28.015Z,97.22
2022-11-24T04:37:28.468Z,97.22
2022-11-24T04:39:25.874Z,97.32
2022-11-24T04:39:47.518Z,97.32
2022-11-24T04:40:27.260Z,97.42
2022-11-24T04:41:28.397Z,97.53
2022-11-24T04:42:28.642Z,97.63
2022-11-24T04:43:28.469Z,97.73
2022-11-24T04:44:28.713Z,97.73
2022-11-24T04:45:28.492Z,97.83
2022-11-24T04:46:28.779Z,97.94
2022-11-24T04:47:28.497Z,97.94
2022-11-24T04:48:27.516Z,98.04
2022-11-24T04:49:47.075Z,98.14
2022-11-24T04:50:27.324Z,98.14
2022-11-24T04:51:28.040Z,98.35
2022-11-24T04:52:27.550Z,98.35
2022-11-24T04:53:27.527Z,98.45
2022-11-24T04:54:27.045Z,98.55
2022-11-24T04:55:28.622Z,98.66
2022-11-24T04:56:27.158Z,98.76
2022-11-24T04:57:27.637Z,98.86
2022-11-24T04:58:27.548Z,98.96
2022-11-24T04:59:47.230Z,99.07
2022-11-24T05:00:28.431Z,99.17
2022-11-24T05:01:28.248Z,99.32
2022-11-24T05:02:28.469Z,99.38
2022-11-24T05:03:27.492Z,99.52
2022-11-24T05:04:27.241Z,99.52
2022-11-24T05:05:28.300Z,99.52
2022-11-24T05:06:27.243Z,99.63
2022-11-24T05:07:28.387Z,99.83
2022-11-24T05:08:28.605Z,99.83
2022-11-24T05:09:58.823Z,99.93
2022-11-24T05:10:27.675Z,99.93
2022-11-24T05:11:28.384Z,99.93
2022-11-24T05:12:27.676Z,99.99
2022-11-24T05:13:28.434Z,99.99
2022-11-24T05:14:27.141Z,99.99
2022-11-24T05:15:27.557Z,99.99
2022-11-24T05:16:27.582Z,99.99
2022-11-24T05:17:28.071Z,99.99
2022-11-24T05:18:28.350Z,99.99
2022-11-24T05:19:46.656Z,99.99
2022-11-24T05:20:28.363Z,99.99
2022-11-24T05:21:27.548Z,99.99
2022-11-24T05:22:27.345Z,99.99
2022-11-24T05:23:28.219Z,99.99
2022-11-24T05:24:26.992Z,99.99
2022-11-24T05:25:28.281Z,99.99
2022-11-24T05:26:28.090Z,99.99
2022-11-24T05:27:27.551Z,99.99
2022-11-24T05:28:28.192Z,99.99
2022-11-24T05:29:46.504Z,99.93
2022-11-24T05:30:26.748Z,99.83
2022-11-24T05:31:26.576Z,99.63
2022-11-24T05:32:26.763Z,99.52
2022-11-24T05:33:26.506Z,99.47
2022-11-24T05:34:26.763Z,99.47
2022-11-24T05:35:26.510Z,99.37
2022-11-24T05:36:26.754Z,99.26
2022-11-24T05:37:26.517Z,99.05
2022-11-24T05:38:26.790Z,99.05
2022-11-24T05:39:46.536Z,98.85
2022-11-24T05:40:26.772Z,98.75
2022-11-24T05:41:26.503Z,98.65
2022-11-24T05:42:26.766Z,98.50
2022-11-24T05:43:26.503Z,98.50
2022-11-24T05:44:26.773Z,98.29
2022-11-24T05:45:26.515Z,97.99
2022-11-24T05:46:26.366Z,97.78
2022-11-24T05:47:26.488Z,97.57
2022-11-24T05:48:26.253Z,97.57
2022-11-24T05:49:46.502Z,97.67
2022-11-24T05:50:26.233Z,97.78
2022-11-24T05:51:26.473Z,97.78
2022-11-24T05:52:26.242Z,97.67
2022-11-24T05:53:26.487Z,97.67
2022-11-24T05:54:26.248Z,97.57
2022-11-24T05:55:26.476Z,97.47
2022-11-24T05:56:26.249Z,97.47
2022-11-24T05:57:26.499Z,97.37
2022-11-24T05:58:26.258Z,97.16
2022-11-24T05:59:46.508Z,96.95
2022-11-24T06:00:26.256Z,97.06
2022-11-24T06:01:26.509Z,97.06
2022-11-24T06:02:26.363Z,96.95
2022-11-24T06:03:25.624Z,96.85
2022-11-24T06:04:26.379Z,96.65
2022-11-24T06:05:25.553Z,96.55
2022-11-24T06:06:25.554Z,96.23
2022-11-24T06:07:26.317Z,96.23
2022-11-24T06:08:30.913Z,96.14
2022-11-24T06:09:46.608Z,95.72
2022-11-24T06:10:25.516Z,95.83
2022-11-24T06:11:26.254Z,95.93
2022-11-24T06:12:26.015Z,95.83
2022-11-24T06:13:26.277Z,95.72
2022-11-24T06:14:26.017Z,95.31
2022-11-24T06:15:26.254Z,94.80
2022-11-24T06:16:26.048Z,94.70
2022-11-24T06:17:26.243Z,94.80
2022-11-24T06:18:26.008Z,94.49
2022-11-24T06:19:46.260Z,94.49
2022-11-24T06:20:31.222Z,94.49
2022-11-24T06:21:27.244Z,94.49
2022-11-24T06:22:25.995Z,94.59
2022-11-24T06:23:26.246Z,94.59
2022-11-24T06:24:26.025Z,94.49
2022-11-24T06:25:26.254Z,94.18
2022-11-24T06:26:26.016Z,94.29
2022-11-24T06:27:26.248Z,94.29
2022-11-24T06:28:26.006Z,94.18
2022-11-24T06:29:47.796Z,94.18
2022-11-24T06:30:26.083Z,94.18
2022-11-24T06:31:25.847Z,94.29
2022-11-24T06:32:26.068Z,94.18
2022-11-24T06:33:25.817Z,94.39
2022-11-24T06:34:26.084Z,94.29
2022-11-24T06:35:25.814Z,94.29
2022-11-24T06:36:26.108Z,94.18
2022-11-24T06:37:25.839Z,94.08
2022-11-24T06:38:26.075Z,94.29
2022-11-24T06:39:47.318Z,94.18
2022-11-24T06:40:26.139Z,93.98
2022-11-24T06:41:25.846Z,93.67
2022-11-24T06:42:26.159Z,93.67
2022-11-24T06:43:25.859Z,93.87
2022-11-24T06:44:26.127Z,93.98
2022-11-24T06:45:25.872Z,93.67
2022-11-24T06:46:26.116Z,93.87
2022-11-24T06:47:25.859Z,93.98
2022-11-24T06:48:26.099Z,94.08
2022-11-24T06:49:46.647Z,94.29
2022-11-24T06:50:30.588Z,94.18
2022-11-24T06:51:26.914Z,94.29
2022-11-24T06:52:25.637Z,94.18
2022-11-24T06:53:25.915Z,94.08
2022-11-24T06:54:25.648Z,94.33
2022-11-24T06:55:25.905Z,94.43
2022-11-24T06:56:25.648Z,94.33
2022-11-24T06:57:25.943Z,94.23
2022-11-24T06:58:25.651Z,94.54
2022-11-24T06:59:46.024Z,94.54
2022-11-24T07:00:25.746Z,94.43
2022-11-24T07:01:26.083Z,94.43
2022-11-24T07:02:25.740Z,94.43
2022-11-24T07:03:25.531Z,94.54
2022-11-24T07:04:25.744Z,94.54
2022-11-24T07:05:25.495Z,94.64
2022-11-24T07:06:25.738Z,94.43
2022-11-24T07:07:25.556Z,94.33
2022-11-24T07:08:25.733Z,94.12
2022-11-24T07:09:46.214Z,93.92
2022-11-24T07:10:25.804Z,94.02
2022-11-24T07:11:25.532Z,94.02
2022-11-24T07:12:25.796Z,94.12
2022-11-24T07:13:25.542Z,94.23
2022-11-24T07:14:25.792Z,94.12
2022-11-24T07:15:25.546Z,94.23
2022-11-24T07:16:25.837Z,94.33
2022-11-24T07:17:25.557Z,94.33
2022-11-24T07:18:25.773Z,94.43
2022-11-24T07:19:46.155Z,94.54
2022-11-24T07:20:25.314Z,94.49
2022-11-24T07:21:25.570Z,94.23
2022-11-24T07:22:25.313Z,93.82
2022-11-24T07:23:25.565Z,93.92
2022-11-24T07:24:25.328Z,94.08
2022-11-24T07:25:25.580Z,94.23
2022-11-24T07:26:25.329Z,94.23
2022-11-24T07:27:25.567Z,94.18
2022-11-24T07:28:25.297Z,93.98
2022-11-24T07:29:47.049Z,93.82
2022-11-24T07:30:25.353Z,93.67
2022-11-24T07:31:25.704Z,93.77
2022-11-24T07:32:25.328Z,93.87
2022-11-24T07:33:25.571Z,93.98
2022-11-24T07:34:25.330Z,94.08
2022-11-24T07:35:25.575Z,93.87
2022-11-24T07:36:25.332Z,93.98
2022-11-24T07:37:30.893Z,94.02
2022-11-24T07:38:26.338Z,93.82
2022-11-24T07:39:45.606Z,94.02
2022-11-24T07:40:25.331Z,93.92
2022-11-24T07:41:25.082Z,93.92
2022-11-24T07:42:25.320Z,94.12
2022-11-24T07:43:25.577Z,93.71
2022-11-24T07:44:25.323Z,93.71
2022-11-24T07:45:25.078Z,93.82
2022-11-24T07:46:25.373Z,93.82
2022-11-24T07:47:25.104Z,93.92
2022-11-24T07:48:25.330Z,93.87
2022-11-24T07:49:45.092Z,93.87
2022-11-24T07:50:25.327Z,93.77
2022-11-24T07:51:25.085Z,93.77
2022-11-24T07:52:25.334Z,93.67
2022-11-24T07:53:25.086Z,93.77
2022-11-24T07:54:25.334Z,93.87
2022-11-24T07:55:25.117Z,93.77
2022-11-24T07:56:25.337Z,93.67
2022-11-24T07:57:25.117Z,93.67
2022-11-24T07:58:30.352Z,93.77
2022-11-24T07:59:46.120Z,93.77
2022-11-24T08:00:25.352Z,93.77
2022-11-24T08:01:25.197Z,93.67
2022-11-24T08:02:25.069Z,93.57
2022-11-24T08:03:25.174Z,93.77
2022-11-24T08:04:24.887Z,93.67
2022-11-24T08:05:25.125Z,93.67
2022-11-24T08:06:27.727Z,93.77
2022-11-24T08:07:26.189Z,93.98
2022-11-24T08:08:24.884Z,93.98
2022-11-24T08:09:45.147Z,93.98
2022-11-24T08:10:24.875Z,93.98
2022-11-24T08:11:25.137Z,93.87
2022-11-24T08:12:24.863Z,93.77
2022-11-24T08:13:25.157Z,93.87
2022-11-24T08:14:24.904Z,93.98
2022-11-24T08:15:25.156Z,93.98
2022-11-24T08:16:24.924Z,93.98
2022-11-24T08:17:25.191Z,93.98
2022-11-24T08:18:24.934Z,93.87
2022-11-24T08:19:45.204Z,93.77
2022-11-24T08:20:24.983Z,93.67
2022-11-24T08:21:24.683Z,93.67
2022-11-24T08:22:24.928Z,93.77
2022-11-24T08:23:24.688Z,93.63
2022-11-24T08:24:25.430Z,93.63
2022-11-24T08:25:24.702Z,93.13
2022-11-24T08:26:25.253Z,91.71
2022-11-24T08:27:24.692Z,89.72
2022-11-24T08:28:24.939Z,88.56
2022-11-24T08:29:44.738Z,86.94
2022-11-24T08:30:25.031Z,86.38
2022-11-24T08:31:24.873Z,84.57
2022-11-24T08:32:25.021Z,83.06
2022-11-24T08:33:24.756Z,81.80
2022-11-24T08:34:25.098Z,81.32
2022-11-24T08:35:24.847Z,81.63
2022-11-24T08:36:24.588Z,80.98
2022-11-24T08:37:24.892Z,79.75
2022-11-24T08:38:24.608Z,79.62
2022-11-24T08:39:45.573Z,78.53
2022-11-24T08:40:24.752Z,78.12
2022-11-24T08:41:24.939Z,77.57
2022-11-24T08:42:24.683Z,76.42
2022-11-24T08:43:24.430Z,75.67
2022-11-24T08:44:24.722Z,74.92
2022-11-24T08:45:25.688Z,73.02
2022-11-24T08:46:24.800Z,71.91
2022-11-24T08:47:24.500Z,70.45
2022-11-24T08:48:24.730Z,69.31
2022-11-24T08:49:45.512Z,67.62
2022-11-24T08:50:24.791Z,67.42
2022-11-24T08:51:24.545Z,66.58
2022-11-24T08:52:24.785Z,66.82
2022-11-24T08:53:24.544Z,65.10
2022-11-24T08:54:24.807Z,65.07
2022-11-24T08:55:24.545Z,64.33
2022-11-24T08:56:24.277Z,63.73
2022-11-24T08:57:24.538Z,63.52
2022-11-24T08:58:24.285Z,63.96
2022-11-24T08:59:45.234Z,65.23
2022-11-24T09:00:24.355Z,65.94
2022-11-24T09:01:24.677Z,66.88
2022-11-24T09:02:24.372Z,66.81
2022-11-24T09:03:24.637Z,67.05
2022-11-24T09:04:24.458Z,69.10
2022-11-24T09:05:50.781Z,68.52
2022-11-24T09:06:25.501Z,69.84
2022-11-24T09:07:24.223Z,69.84
2022-11-24T09:08:24.438Z,70.01
2022-11-24T09:09:46.159Z,70.83
2022-11-24T09:10:24.449Z,70.79
2022-11-24T09:11:24.197Z,69.98
2022-11-24T09:12:24.441Z,69.88
2022-11-24T09:13:24.214Z,69.78
2022-11-24T09:14:24.443Z,70.48
2022-11-24T09:15:24.193Z,70.11
2022-11-24T09:16:24.478Z,70.11
2022-11-24T09:17:24.192Z,70.55
2022-11-24T09:18:29.961Z,72.21
2022-11-24T09:19:45.929Z,72.31
2022-11-24T09:20:24.527Z,72.21
2022-11-24T09:21:24.280Z,72.11
2022-11-24T09:22:24.042Z,73.46
2022-11-24T09:23:24.319Z,73.77
2022-11-24T09:24:24.096Z,73.80
2022-11-24T09:25:24.345Z,75.06
2022-11-24T09:26:24.083Z,75.81
2022-11-24T09:27:24.355Z,75.98
2022-11-24T09:28:24.092Z,75.37
2022-11-24T09:29:46.333Z,75.20
2022-11-24T09:30:24.124Z,75.70
2022-11-24T09:31:24.457Z,75.26
2022-11-24T09:32:24.220Z,75.06
2022-11-24T09:33:23.986Z,74.24
2022-11-24T09:34:24.477Z,74.76
2022-11-24T09:35:23.960Z,75.02
2022-11-24T09:36:24.217Z,73.77
2022-11-24T09:37:28.149Z,73.50
2022-11-24T09:38:25.264Z,72.75
2022-11-24T09:39:45.497Z,70.52
2022-11-24T09:40:24.278Z,69.57
2022-11-24T09:41:24.041Z,68.60
2022-11-24T09:42:24.290Z,67.29
2022-11-24T09:43:24.065Z,66.44
2022-11-24T09:44:24.302Z,65.61
2022-11-24T09:45:48.993Z,66.08
2022-11-24T09:46:24.392Z,65.21
2022-11-24T09:47:24.029Z,63.60
2022-11-24T09:48:23.773Z,61.73
2022-11-24T09:55:28.223Z,59.36
2022-11-24T09:55:33.112Z,55.20
2022-11-24T09:59:04.832Z,55.88
2022-11-24T09:59:09.615Z,54.80
2022-11-24T10:02:16.875Z,53.67
2022-11-24T10:02:21.645Z,52.55
2022-11-24T10:03:22.389Z,51.77
2022-11-24T10:04:22.225Z,52.55
2022-11-24T10:15:53.476Z,51.42
2022-11-24T10:15:58.341Z,50.12
2022-11-24T10:36:21.582Z,48.72
2022-11-24T11:14:35.141Z,49.00
2022-11-24T11:14:46.869Z,55.28
2022-11-24T11:15:40.725Z,54.68
2022-11-24T11:16:40.478Z,54.38
2022-11-24T11:17:40.708Z,53.97
2022-11-24T11:18:40.494Z,54.77
2022-11-24T11:19:49.841Z,53.67
2022-11-24T11:20:41.499Z,54.85
2022-11-24T11:21:40.742Z,54.25
2022-11-24T11:23:01.202Z,54.43
2022-11-24T11:23:40.780Z,52.72
2022-11-24T11:24:40.543Z,52.82
2022-11-24T11:25:40.812Z,52.52
2022-11-24T11:26:40.598Z,52.72
2022-11-24T11:27:40.326Z,52.62
2022-11-24T11:28:40.593Z,53.12
2022-11-24T11:31:40.890Z,52.47
2022-11-24T11:50:08.364Z,52.04
2022-11-24T11:50:13.174Z,59.22
2022-11-24T11:51:23.182Z,60.35
2022-11-24T11:52:16.145Z,60.15
2022-11-24T11:53:15.911Z,60.45
2022-11-24T11:54:14.632Z,60.75
2022-11-24T11:55:13.917Z,60.35
2022-11-24T11:56:13.696Z,60.32
2022-11-24T11:57:15.368Z,59.95
2022-11-24T11:58:33.708Z,61.18
2022-11-24T11:59:13.927Z,60.41
2022-11-24T12:00:13.700Z,61.85
2022-11-24T12:01:13.981Z,62.68
2022-11-24T12:02:13.803Z,63.42
2022-11-24T12:03:14.070Z,64.16
2022-11-24T12:04:13.738Z,65.70
2022-11-24T12:05:13.971Z,66.14
2022-11-24T12:06:13.724Z,66.71
2022-11-24T12:07:14.043Z,66.41
2022-11-24T12:08:55.833Z,67.62
2022-11-24T12:09:22.187Z,67.85
2022-11-24T12:10:14.718Z,68.40
2022-11-24T12:11:13.456Z,68.49
2022-11-24T12:12:13.748Z,69.20
2022-11-24T12:13:13.451Z,69.41
2022-11-24T12:14:13.712Z,69.13
2022-11-24T12:15:13.458Z,69.44
2022-11-24T12:16:13.744Z,70.18
2022-11-24T12:17:13.449Z,70.89
2022-11-24T12:18:56.496Z,70.62
2022-11-24T12:19:14.827Z,70.62
2022-11-24T12:20:13.594Z,71.03
2022-11-24T12:21:13.347Z,71.13
2022-11-24T12:22:13.627Z,71.64
2022-11-24T12:23:13.333Z,71.77
2022-11-24T12:24:12.878Z,72.38
2022-11-24T12:25:12.751Z,71.77
2022-11-24T12:26:12.784Z,72.38
2022-11-24T12:27:15.682Z,72.17
2022-11-24T12:28:33.822Z,72.17
2022-11-24T12:29:12.758Z,71.67
2022-11-24T12:30:12.907Z,72.89
2022-11-24T12:31:12.824Z,72.78
2022-11-24T12:32:13.668Z,72.62
2022-11-24T12:33:13.634Z,72.92
2022-11-24T12:34:13.637Z,72.82
2022-11-24T12:35:13.448Z,73.02
2022-11-24T12:36:13.701Z,73.43
2022-11-24T12:37:13.436Z,73.22
2022-11-24T12:38:32.700Z,72.82
2022-11-24T12:39:13.423Z,72.75
2022-11-24T12:40:13.183Z,73.87
2022-11-24T12:42:14.667Z,74.38
2022-11-24T12:43:13.578Z,74.38
2022-11-24T12:44:13.432Z,74.11
2022-11-24T12:45:13.403Z,74.72
2022-11-24T12:46:17.311Z,74.31
2022-11-24T12:47:13.412Z,74.82
2022-11-24T12:48:33.107Z,74.52
2022-11-24T12:49:14.272Z,75.23
2022-11-24T12:50:13.058Z,75.53
2022-11-24T12:51:13.328Z,74.65
2022-11-24T12:52:13.066Z,75.06
2022-11-24T12:53:13.330Z,75.77
2022-11-24T12:54:12.470Z,75.98
2022-11-24T12:55:13.235Z,75.26
2022-11-24T12:56:12.981Z,75.57
2022-11-24T12:57:13.231Z,75.46
2022-11-24T12:58:33.860Z,75.87
2022-11-24T12:59:13.320Z,76.18
2022-11-24T13:00:13.054Z,75.67
2022-11-24T13:01:16.794Z,75.98
2022-11-24T13:02:13.115Z,76.18
2022-11-24T13:03:13.316Z,76.18
2022-11-24T13:04:13.024Z,76.18
2022-11-24T13:05:13.279Z,76.38
2022-11-24T13:06:13.005Z,76.28
2022-11-24T13:07:13.327Z,76.59
2022-11-24T13:08:33.028Z,76.68
2022-11-24T13:09:13.305Z,76.68
2022-11-24T13:10:13.046Z,76.99
2022-11-24T13:11:12.813Z,76.79
2022-11-24T13:12:13.065Z,76.18
2022-11-24T13:13:12.817Z,76.18
2022-11-24T13:14:13.048Z,76.48
2022-11-24T13:15:36.124Z,77.09
2022-11-24T13:16:59.322Z,76.62
2022-11-24T13:17:29.553Z,76.31
2022-11-24T13:18:34.000Z,76.01
2022-11-24T13:19:12.766Z,76.42
2022-11-24T13:20:12.950Z,76.42
2022-11-24T13:21:12.726Z,76.31
2022-11-24T13:22:12.967Z,76.82
2022-11-24T13:23:14.966Z,76.62
2022-11-24T13:25:12.736Z,76.62
2022-11-24T13:26:13.925Z,77.13
2022-11-24T13:27:12.750Z,77.03
2022-11-24T13:29:00.454Z,77.03
2022-11-24T13:29:25.033Z,77.44
2022-11-24T13:30:13.865Z,77.64
2022-11-24T13:31:14.111Z,77.53
2022-11-24T13:32:14.303Z,77.03
2022-11-24T13:33:16.510Z,76.31
2022-11-24T13:34:12.872Z,76.72
2022-11-24T13:35:12.627Z,76.92
2022-11-24T13:36:12.854Z,77.33
2022-11-24T13:37:32.057Z,76.92
2022-11-24T13:38:33.902Z,77.33
2022-11-24T13:39:12.656Z,77.33
2022-11-24T13:40:12.885Z,76.62
2022-11-24T13:41:28.186Z,76.92
2022-11-24T13:42:41.886Z,77.13
2022-11-24T13:43:13.726Z,77.53
2022-11-24T13:44:12.457Z,76.92
2022-11-24T13:45:12.726Z,76.92
2022-11-24T13:46:12.492Z,76.72
2022-11-24T13:47:12.731Z,77.33
2022-11-24T13:48:32.497Z,77.57
2022-11-24T13:49:12.743Z,77.17
2022-11-24T13:50:12.470Z,77.17
2022-11-24T13:51:12.747Z,77.37
2022-11-24T13:52:13.439Z,77.57
2022-11-24T13:53:12.749Z,77.98
2022-11-24T13:54:12.477Z,78.39
2022-11-24T13:55:12.760Z,78.28
2022-11-24T13:56:12.469Z,78.28
2022-11-24T13:57:12.753Z,78.19
2022-11-24T13:58:32.521Z,77.57
2022-11-24T13:59:12.771Z,77.78
2022-11-24T14:00:12.514Z,77.87
2022-11-24T14:01:12.274Z,78.08
2022-11-24T14:02:12.557Z,77.71
2022-11-24T14:03:12.338Z,78.22
2022-11-24T14:05:13.274Z,77.81
2022-11-24T14:06:14.463Z,78.12
2022-11-24T14:07:12.328Z,77.91
2022-11-24T14:08:32.537Z,78.32
2022-11-24T14:09:12.281Z,78.53
2022-11-24T14:10:12.551Z,78.32
2022-11-24T14:11:12.292Z,78.22
2022-11-24T14:12:12.555Z,78.42
2022-11-24T14:14:14.724Z,78.63
2022-11-24T14:15:13.311Z,78.93
2022-11-24T14:16:12.553Z,78.56
2022-11-24T14:17:12.298Z,78.46
2022-11-24T14:18:32.564Z,78.97
2022-11-24T14:19:12.300Z,78.87
2022-11-24T14:20:12.549Z,78.66
2022-11-24T14:21:12.283Z,79.07
2022-11-24T14:22:12.062Z,79.17
2022-11-24T14:23:12.318Z,79.27
2022-11-24T14:24:12.074Z,79.32
2022-11-24T14:25:12.293Z,79.21
2022-11-24T14:26:12.053Z,79.32
2022-11-24T14:27:12.295Z,79.62
2022-11-24T14:28:32.124Z,79.62